Time;durP1;ratioP1;P1;durP2;ratioP2;P2;SDS_P1;SDS_P2;PMS_P1;PMS_P2;Temp;Humidity;BMP_temperature;BMP_pressure;BME280_temperature;BME280_humidity;BME280_pressure;Samples;Min_cycle;Max_cycle;Signal;HPM_P1;HPM_P2
2023/01/07 00:02:18;;;;;;;9.57;4.67;;;4.50;99.90;;;;;;5023705;28;20200;-50
2023/01/07 00:04:45;;;;;;;10.27;3.93;;;4.50;99.90;;;;;;5018832;28;20295;-54
2023/01/07 00:07:13;;;;;;;10.57;4.77;;;4.50;99.90;;;;;;5024744;28;20223;-54
2023/01/07 00:09:40;;;;;;;7.80;4.37;;;4.50;99.90;;;;;;5015998;28;21070;-51
2023/01/07 00:12:06;;;;;;;9.67;4.30;;;4.60;99.90;;;;;;5030946;28;20199;-52
2023/01/07 00:14:33;;;;;;;7.13;4.10;;;4.60;99.90;;;;;;5005437;28;20203;-47
2023/01/07 00:17:00;;;;;;;8.60;5.47;;;4.60;99.90;;;;;;5029441;28;20219;-56
2023/01/07 00:19:27;;;;;;;9.93;4.63;;;4.60;99.90;;;;;;5022819;28;20219;-46
2023/01/07 00:21:53;;;;;;;8.00;4.10;;;4.60;99.90;;;;;;5023448;28;20203;-56
2023/01/07 00:24:22;;;;;;;11.97;5.17;;;4.70;99.90;;;;;;5024167;28;20852;-49
2023/01/07 00:26:48;;;;;;;9.60;4.53;;;4.70;99.90;;;;;;5022527;28;20216;-55
2023/01/07 00:29:17;;;;;;;9.43;5.00;;;4.80;99.90;;;;;;5024191;28;20620;-50
2023/01/07 00:31:44;;;;;;;10.33;5.33;;;4.80;99.90;;;;;;5011022;28;20203;-57
2023/01/07 00:34:11;;;;;;;11.83;5.43;;;4.80;99.90;;;;;;5022496;28;20207;-49
2023/01/07 00:36:44;;;;;;;9.47;5.30;;;4.90;99.90;;;;;;5019588;28;20224;-54
2023/01/07 00:39:14;;;;;;;8.37;5.33;;;4.90;99.90;;;;;;5025842;28;20211;-57
2023/01/07 00:42:52;;;;;;;12.50;4.83;;;4.90;99.90;;;;;;5023652;28;20192;-51
2023/01/07 00:44:32;;;;;;;12.17;5.67;;;4.90;99.90;;;;;;5020844;28;20274;-50
2023/01/07 00:46:59;;;;;;;6.50;4.60;;;4.90;99.90;;;;;;5009912;28;20211;-57
2023/01/07 00:49:27;;;;;;;8.53;5.00;;;4.90;99.90;;;;;;5024126;28;20560;-46
2023/01/07 00:51:54;;;;;;;10.07;5.03;;;4.90;99.90;;;;;;5025244;28;20200;-55
2023/01/07 00:54:21;;;;;;;6.60;5.07;;;4.90;99.90;;;;;;5022033;28;20210;-46
2023/01/07 00:56:49;;;;;;;6.50;4.67;;;4.90;99.90;;;;;;5022321;28;20838;-56
2023/01/07 00:59:16;;;;;;;9.43;5.20;;;5.00;99.90;;;;;;5022866;28;20195;-54
2023/01/07 01:01:44;;;;;;;11.17;5.60;;;5.00;99.90;;;;;;4997880;28;21580;-52
2023/01/07 01:04:10;;;;;;;7.83;5.23;;;5.00;99.90;;;;;;5024053;28;20246;-57
2023/01/07 01:06:37;;;;;;;10.83;5.93;;;5.00;99.90;;;;;;5030989;28;20312;-57
2023/01/07 01:09:04;;;;;;;10.10;6.23;;;5.10;99.90;;;;;;5043308;28;20215;-52
2023/01/07 01:11:31;;;;;;;13.47;6.67;;;5.10;99.90;;;;;;5026357;28;20200;-52
2023/01/07 01:14:00;;;;;;;13.83;6.17;;;5.10;99.90;;;;;;5028325;28;20211;-54
2023/01/07 01:16:26;;;;;;;11.10;5.93;;;5.20;99.90;;;;;;5011374;28;20215;-49
2023/01/07 01:18:53;;;;;;;10.73;6.57;;;5.20;99.90;;;;;;5014857;28;20192;-54
2023/01/07 01:21:20;;;;;;;9.23;5.97;;;5.30;99.90;;;;;;5022880;28;20295;-49
2023/01/07 01:23:47;;;;;;;9.83;6.27;;;5.30;99.90;;;;;;5031291;28;20985;-52
2023/01/07 01:26:15;;;;;;;16.37;6.67;;;5.30;99.90;;;;;;5031175;28;20207;-56
2023/01/07 01:28:43;;;;;;;13.80;6.53;;;5.40;99.90;;;;;;5021279;28;20211;-50
2023/01/07 01:31:12;;;;;;;10.60;6.70;;;5.40;99.90;;;;;;5040160;28;20249;-52
2023/01/07 01:33:48;;;;;;;14.20;6.83;;;5.40;99.90;;;;;;5007208;28;20195;-52
2023/01/07 01:36:16;;;;;;;8.60;6.20;;;5.40;99.90;;;;;;5021836;28;20713;-49
2023/01/07 01:38:43;;;;;;;11.33;6.87;;;5.40;99.90;;;;;;5024369;28;20296;-53
2023/01/07 01:41:15;;;;;;;10.13;6.47;;;5.40;99.90;;;;;;5022139;28;20626;-53
2023/01/07 01:43:44;;;;;;;15.63;7.27;;;5.50;99.90;;;;;;5023826;28;20190;-51
2023/01/07 01:46:16;;;;;;;10.97;7.03;;;5.50;99.90;;;;;;5027634;28;20200;-55
2023/01/07 01:48:48;;;;;;;9.70;6.80;;;5.50;99.90;;;;;;5000407;28;20358;-55
2023/01/07 01:51:20;;;;;;;17.70;7.40;;;5.60;99.90;;;;;;5021849;28;20289;-51
2023/01/07 01:53:48;;;;;;;15.33;8.13;;;5.60;99.90;;;;;;5022451;28;20192;-56
2023/01/07 01:56:19;;;;;;;15.07;8.03;;;5.60;99.90;;;;;;5021897;28;20228;-48
2023/01/07 01:58:51;;;;;;;14.43;7.97;;;5.60;99.90;;;;;;5019984;28;20246;-54
2023/01/07 02:01:19;;;;;;;13.67;8.73;;;5.70;99.90;;;;;;5018356;28;20227;-48
2023/01/07 02:03:48;;;;;;;15.03;8.23;;;5.70;99.90;;;;;;5012559;28;20961;-55
2023/01/07 02:06:23;;;;;;;11.97;8.47;;;5.80;99.90;;;;;;5021635;28;20258;-49
2023/01/07 02:08:50;;;;;;;14.50;8.70;;;5.80;99.90;;;;;;5037661;28;20226;-50
2023/01/07 02:11:29;;;;;;;14.93;9.37;;;5.80;99.90;;;;;;5032608;28;20586;-47
2023/01/07 02:14:09;;;;;;;15.63;9.13;;;5.90;99.90;;;;;;5041471;28;20672;-48
2023/01/07 02:16:45;;;;;;;13.57;8.13;;;5.90;99.90;;;;;;5022217;28;20227;-53
2023/01/07 02:19:45;;;;;;;16.10;9.80;;;5.90;99.90;;;;;;5009925;28;20261;-53
2023/01/07 02:22:25;;;;;;;23.03;9.63;;;6.00;99.90;;;;;;5018250;28;20257;-54
2023/01/07 02:25:24;;;;;;;17.03;10.17;;;6.00;99.90;;;;;;5031148;28;21016;-50
2023/01/07 02:28:17;;;;;;;22.60;10.80;;;6.10;99.90;;;;;;5058685;28;20246;-55
2023/01/07 02:31:01;;;;;;;15.37;9.70;;;6.10;99.90;;;;;;5042958;28;20199;-51
2023/01/07 02:33:38;;;;;;;21.67;9.60;;;6.10;99.90;;;;;;5013336;28;20304;-47
2023/01/07 02:36:24;;;;;;;18.43;10.57;;;6.20;99.90;;;;;;5032184;28;20558;-55
2023/01/07 02:39:10;;;;;;;15.57;10.10;;;6.20;99.90;;;;;;5023742;28;20215;-56
2023/01/07 02:41:45;;;;;;;18.47;10.47;;;6.20;99.90;;;;;;5025263;28;20195;-51
2023/01/07 02:44:21;;;;;;;21.90;11.40;;;6.30;99.90;;;;;;5037929;28;20278;-51
2023/01/07 02:46:55;;;;;;;18.83;11.80;;;6.30;99.90;;;;;;5026736;28;20220;-52
2023/01/07 02:49:24;;;;;;;17.27;10.57;;;6.30;99.90;;;;;;5014504;28;20231;-46
2023/01/07 02:51:52;;;;;;;23.33;12.53;;;6.30;99.90;;;;;;5024608;28;20186;-50
2023/01/07 02:54:22;;;;;;;22.83;12.03;;;6.30;99.90;;;;;;5024804;28;20204;-46
2023/01/07 02:57:10;;;;;;;24.63;13.17;;;6.30;99.90;;;;;;5021767;28;20270;-54
2023/01/07 02:59:56;;;;;;;26.27;13.97;;;6.40;99.90;;;;;;5044230;28;20192;-51
2023/01/07 03:02:49;;;;;;;19.43;12.70;;;6.40;99.90;;;;;;5040076;28;20216;-50
2023/01/07 03:05:29;;;;;;;25.97;13.40;;;6.50;99.90;;;;;;5015930;28;20251;-51
2023/01/07 03:08:11;;;;;;;25.53;14.07;;;6.50;99.90;;;;;;5040706;28;20211;-56
2023/01/07 03:10:45;;;;;;;24.37;14.60;;;6.50;99.90;;;;;;5040862;28;20870;-52
2023/01/07 03:13:17;;;;;;;24.90;14.23;;;6.60;99.90;;;;;;5027400;28;20204;-47
2023/01/07 03:15:48;;;;;;;27.53;14.67;;;6.60;99.90;;;;;;5048501;28;20202;-49
2023/01/07 03:18:20;;;;;;;29.87;14.77;;;6.70;99.90;;;;;;5024920;28;20768;-49
2023/01/07 03:20:53;;;;;;;28.70;14.47;;;6.70;99.90;;;;;;5034415;28;20896;-52
2023/01/07 03:23:23;;;;;;;26.93;15.47;;;6.70;99.90;;;;;;5023885;28;20262;-48
2023/01/07 03:25:53;;;;;;;25.73;15.30;;;6.80;99.90;;;;;;5037428;28;20722;-52
2023/01/07 03:28:26;;;;;;;27.60;15.37;;;6.80;99.90;;;;;;5025103;28;20219;-46
2023/01/07 03:30:56;;;;;;;25.77;13.97;;;6.80;99.90;;;;;;5040214;28;20208;-55
2023/01/07 03:33:30;;;;;;;28.00;15.23;;;6.80;99.90;;;;;;5024229;28;20212;-47
2023/01/07 03:36:24;;;;;;;24.77;14.13;;;6.80;99.90;;;;;;5016193;28;20368;-46
2023/01/07 03:38:54;;;;;;;27.27;15.53;;;6.90;99.90;;;;;;5052513;28;20199;-52
2023/01/07 03:44:07;;;;;;;24.83;14.40;;;6.90;99.90;;;;;;5025759;28;20275;-49
2023/01/07 03:46:37;;;;;;;28.97;15.07;;;6.90;99.90;;;;;;5035872;28;20250;-52
2023/01/07 03:49:04;;;;;;;28.97;15.90;;;6.90;99.90;;;;;;5028911;28;20219;-54
2023/01/07 03:51:32;;;;;;;27.30;15.07;;;7.00;99.90;;;;;;5036098;28;20210;-46
2023/01/07 03:53:59;;;;;;;26.60;16.17;;;7.00;99.90;;;;;;5025246;28;20659;-54
2023/01/07 03:56:26;;;;;;;28.53;15.97;;;7.00;99.90;;;;;;5038508;28;20228;-45
2023/01/07 03:58:53;;;;;;;27.00;15.57;;;7.00;99.90;;;;;;5021783;28;20199;-55
2023/01/07 04:01:20;;;;;;;32.30;16.90;;;7.00;99.90;;;;;;5039749;28;20565;-49
2023/01/07 04:03:48;;;;;;;32.33;15.97;;;7.00;99.90;;;;;;5023122;28;20180;-51
2023/01/07 04:06:15;;;;;;;30.10;16.63;;;7.00;99.90;;;;;;5030985;28;20226;-52
2023/01/07 04:08:43;;;;;;;31.30;16.67;;;7.00;99.90;;;;;;5046319;28;20299;-53
2023/01/07 04:11:11;;;;;;;28.90;15.70;;;7.10;99.90;;;;;;5030704;28;20203;-50
2023/01/07 04:13:38;;;;;;;28.03;15.40;;;7.10;99.90;;;;;;5016355;28;20811;-55
2023/01/07 04:16:05;;;;;;;29.67;16.23;;;7.10;99.90;;;;;;5027982;28;20196;-52
2023/01/07 04:18:32;;;;;;;31.50;17.57;;;7.10;99.90;;;;;;5020952;28;20215;-47
2023/01/07 04:21:00;;;;;;;33.60;17.83;;;7.10;99.90;;;;;;5023442;28;20884;-57
2023/01/07 04:23:27;;;;;;;30.90;17.17;;;7.20;99.90;;;;;;5012866;28;20769;-50
2023/01/07 04:25:56;;;;;;;35.03;17.30;;;7.20;99.90;;;;;;5044418;28;20199;-54
2023/01/07 04:28:24;;;;;;;35.73;17.43;;;7.20;99.90;;;;;;5050896;28;20212;-49
2023/01/07 04:30:51;;;;;;;32.57;18.17;;;7.20;99.90;;;;;;5041709;28;20896;-48
2023/01/07 04:33:19;;;;;;;27.23;16.43;;;7.30;99.90;;;;;;5027275;28;20250;-47
2023/01/07 04:35:47;;;;;;;30.27;16.60;;;7.30;99.90;;;;;;5041832;28;20195;-55
2023/01/07 04:38:15;;;;;;;32.83;18.80;;;7.30;99.90;;;;;;5009983;28;20234;-50
2023/01/07 04:40:42;;;;;;;30.60;17.00;;;7.40;99.90;;;;;;5022038;28;20275;-54
2023/01/07 04:43:11;;;;;;;32.93;18.00;;;7.40;99.90;;;;;;5027523;28;20644;-51
2023/01/07 04:45:38;;;;;;;31.00;17.70;;;7.40;99.90;;;;;;5013722;28;20567;-52
2023/01/07 04:48:05;;;;;;;31.67;17.97;;;7.50;99.90;;;;;;5036596;28;20900;-52
2023/01/07 04:50:32;;;;;;;33.37;18.00;;;7.50;99.90;;;;;;5023749;28;20204;-50
2023/01/07 04:52:59;;;;;;;32.57;18.97;;;7.50;99.90;;;;;;5024775;28;20239;-49
2023/01/07 04:55:27;;;;;;;30.30;17.60;;;7.50;99.90;;;;;;5026371;28;20204;-55
2023/01/07 04:57:56;;;;;;;31.20;18.73;;;7.50;99.90;;;;;;5022540;28;20259;-45
2023/01/07 05:00:24;;;;;;;32.53;18.53;;;7.50;99.90;;;;;;5017770;28;20265;-48
2023/01/07 05:02:53;;;;;;;30.73;17.93;;;7.60;99.90;;;;;;5030325;28;20345;-52
2023/01/07 05:05:21;;;;;;;33.47;17.83;;;7.60;99.90;;;;;;5023980;28;20209;-48
2023/01/07 05:07:48;;;;;;;32.40;18.73;;;7.60;99.90;;;;;;5024458;28;20216;-47
2023/01/07 05:10:18;;;;;;;33.37;17.90;;;7.60;99.90;;;;;;5025869;28;20231;-50
2023/01/07 05:12:45;;;;;;;32.10;18.43;;;7.60;99.90;;;;;;5027411;28;20204;-50
2023/01/07 05:15:13;;;;;;;32.17;17.87;;;7.60;99.90;;;;;;5028912;28;20322;-52
2023/01/07 05:17:43;;;;;;;32.00;18.30;;;7.60;99.90;;;;;;5021029;28;20497;-51
2023/01/07 05:20:12;;;;;;;30.57;18.33;;;7.70;99.90;;;;;;5022514;28;20232;-55
2023/01/07 05:22:39;;;;;;;30.90;17.33;;;7.70;99.90;;;;;;5020588;28;20272;-50
2023/01/07 05:25:08;;;;;;;33.47;19.33;;;7.70;99.90;;;;;;5014523;28;20285;-51
2023/01/07 05:27:36;;;;;;;28.90;17.27;;;7.70;99.90;;;;;;5018934;28;20215;-54
2023/01/07 05:30:05;;;;;;;31.97;18.67;;;7.80;99.90;;;;;;5024445;28;20706;-56
2023/01/07 05:32:32;;;;;;;28.87;18.30;;;7.90;99.90;;;;;;5018717;28;20216;-49
2023/01/07 05:35:00;;;;;;;34.90;19.63;;;8.00;99.90;;;;;;5023924;28;20192;-54
2023/01/07 05:37:28;;;;;;;34.07;19.47;;;8.20;99.90;;;;;;5026693;28;20227;-50
2023/01/07 05:39:56;;;;;;;37.30;20.33;;;8.30;99.90;;;;;;5026699;28;20204;-56
2023/01/07 05:42:23;;;;;;;37.43;20.80;;;8.40;99.90;;;;;;5024972;28;20234;-50
2023/01/07 05:44:50;;;;;;;34.47;20.50;;;8.60;99.90;;;;;;5044270;28;20319;-52
2023/01/07 05:47:17;;;;;;;36.93;20.90;;;8.60;99.90;;;;;;5024561;28;20616;-51
2023/01/07 05:49:44;;;;;;;35.00;20.03;;;8.80;99.90;;;;;;5039576;28;20229;-51
2023/01/07 05:52:13;;;;;;;38.67;21.33;;;8.90;99.90;;;;;;5042724;28;20206;-51
2023/01/07 05:54:39;;;;;;;36.93;20.57;;;9.00;99.90;;;;;;5014228;28;20211;-52
2023/01/07 05:57:06;;;;;;;33.00;18.63;;;9.00;99.90;;;;;;5027205;28;20223;-49
2023/01/07 05:59:33;;;;;;;34.93;20.07;;;9.10;99.90;;;;;;5023277;28;20188;-50
2023/01/07 06:02:00;;;;;;;33.50;20.00;;;9.10;99.90;;;;;;5027097;28;20597;-53
2023/01/07 06:04:27;;;;;;;34.03;19.83;;;9.20;99.90;;;;;;5020284;28;20944;-54
2023/01/07 06:06:54;;;;;;;29.60;18.63;;;9.20;99.90;;;;;;5023033;28;20306;-50
2023/01/07 06:09:23;;;;;;;33.63;17.57;;;9.20;99.90;;;;;;5023903;28;20583;-49
2023/01/07 06:11:49;;;;;;;36.13;21.63;;;9.20;99.90;;;;;;5014453;28;20677;-51
2023/01/07 06:14:16;;;;;;;35.17;20.37;;;9.30;99.90;;;;;;5031221;28;20218;-47
2023/01/07 06:16:43;;;;;;;36.33;20.50;;;9.30;99.90;;;;;;5029172;28;20239;-52
2023/01/07 06:19:10;;;;;;;33.23;20.27;;;9.30;99.90;;;;;;5023516;28;20721;-46
2023/01/07 06:21:37;;;;;;;35.27;21.30;;;9.30;99.90;;;;;;5020814;28;20927;-51
2023/01/07 06:24:05;;;;;;;31.13;18.90;;;9.40;99.90;;;;;;5024416;28;20203;-56
2023/01/07 06:26:34;;;;;;;34.57;20.43;;;9.40;99.90;;;;;;5007830;28;20219;-51
2023/01/07 06:29:01;;;;;;;34.60;20.47;;;9.40;99.90;;;;;;5030759;28;20648;-48
2023/01/07 06:31:28;;;;;;;33.13;20.20;;;9.40;99.90;;;;;;5022464;28;20206;-53
2023/01/07 06:33:55;;;;;;;31.23;20.10;;;9.40;99.90;;;;;;5023940;28;20204;-52
2023/01/07 06:36:22;;;;;;;29.10;19.17;;;9.40;99.90;;;;;;5020804;28;20224;-43
2023/01/07 06:38:49;;;;;;;33.30;21.13;;;9.40;99.90;;;;;;5023536;28;20208;-54
2023/01/07 06:41:16;;;;;;;33.37;21.93;;;9.50;99.90;;;;;;5011738;28;20200;-45
2023/01/07 06:43:44;;;;;;;29.93;19.73;;;9.50;99.90;;;;;;5019422;28;20196;-54
2023/01/07 06:46:11;;;;;;;30.80;19.30;;;9.50;99.90;;;;;;5018475;28;20212;-46
2023/01/07 06:48:38;;;;;;;31.33;19.87;;;9.50;99.90;;;;;;5018123;28;20207;-49
2023/01/07 06:51:05;;;;;;;31.80;20.27;;;9.50;99.90;;;;;;5033689;28;20219;-55
2023/01/07 06:53:32;;;;;;;31.20;19.17;;;9.50;99.90;;;;;;5022108;28;20250;-51
2023/01/07 06:55:58;;;;;;;30.07;19.97;;;9.50;99.90;;;;;;5028801;28;20199;-51
2023/01/07 06:58:25;;;;;;;29.67;19.77;;;9.60;99.90;;;;;;5008534;28;20212;-46
2023/01/07 07:00:53;;;;;;;30.73;20.57;;;9.60;99.90;;;;;;5028755;28;20199;-52
2023/01/07 07:03:20;;;;;;;29.20;18.90;;;9.60;99.90;;;;;;5018689;28;20211;-43
2023/01/07 07:05:47;;;;;;;30.27;18.83;;;9.60;99.90;;;;;;5042304;28;20218;-54
2023/01/07 07:08:13;;;;;;;28.47;19.43;;;9.60;99.90;;;;;;5031095;28;20236;-46
2023/01/07 07:10:40;;;;;;;30.57;19.60;;;9.60;99.90;;;;;;5027841;28;20215;-49
2023/01/07 07:13:07;;;;;;;31.70;20.20;;;9.70;99.90;;;;;;5026429;28;20203;-43
2023/01/07 07:15:34;;;;;;;29.20;20.27;;;9.70;99.90;;;;;;5021682;28;20283;-52
2023/01/07 07:18:02;;;;;;;31.77;19.73;;;9.70;99.90;;;;;;5022485;28;20319;-55
2023/01/07 07:20:28;;;;;;;27.00;19.10;;;9.70;99.90;;;;;;5021420;28;20196;-45
2023/01/07 07:22:55;;;;;;;29.50;20.50;;;9.70;99.90;;;;;;5028721;28;20208;-45
2023/01/07 07:25:22;;;;;;;28.90;20.33;;;9.70;99.90;;;;;;5024476;28;20575;-51
2023/01/07 07:28:08;;;;;;;26.43;18.77;;;9.70;99.90;;;;;;5032432;28;20342;-51
2023/01/07 07:30:36;;;;;;;31.90;21.60;;;9.80;99.90;;;;;;5013560;28;20215;-49
2023/01/07 07:33:05;;;;;;;28.33;18.63;;;9.70;99.90;;;;;;5022755;28;20199;-47
2023/01/07 07:35:32;;;;;;;31.70;19.53;;;9.80;99.90;;;;;;5016239;28;20852;-46
2023/01/07 07:37:59;;;;;;;27.87;19.23;;;9.70;99.90;;;;;;5023829;28;20597;-50
2023/01/07 07:40:26;;;;;;;27.00;19.50;;;9.80;99.90;;;;;;5033004;28;20245;-53
2023/01/07 07:42:53;;;;;;;27.47;18.73;;;9.80;99.90;;;;;;5028755;28;20258;-49
2023/01/07 07:45:38;;;;;;;28.50;19.23;;;9.80;99.90;;;;;;5021568;28;20245;-48
2023/01/07 07:48:07;;;;;;;25.73;18.20;;;9.80;99.90;;;;;;5026040;28;20231;-48
2023/01/07 07:50:34;;;;;;;26.87;19.63;;;9.80;99.90;;;;;;5015406;28;20297;-46
2023/01/07 07:53:01;;;;;;;29.77;19.13;;;9.80;99.90;;;;;;5037521;28;20611;-46
2023/01/07 07:55:28;;;;;;;30.20;20.83;;;9.80;99.90;;;;;;5024558;28;20962;-45
2023/01/07 07:57:55;;;;;;;27.47;19.90;;;9.80;99.90;;;;;;5034387;28;20215;-52
2023/01/07 08:00:23;;;;;;;27.23;20.27;;;9.80;99.90;;;;;;5014622;28;20199;-46
2023/01/07 08:02:50;;;;;;;26.70;19.67;;;9.80;99.90;;;;;;5029693;28;20284;-45
2023/01/07 08:05:18;;;;;;;31.73;21.13;;;9.80;99.90;;;;;;5022639;28;20761;-49
2023/01/07 08:07:45;;;;;;;27.07;20.17;;;9.80;99.90;;;;;;5025414;28;20279;-45
2023/01/07 08:10:12;;;;;;;27.30;19.90;;;9.90;99.90;;;;;;5028408;28;20207;-49
2023/01/07 08:12:39;;;;;;;26.63;20.10;;;9.90;99.90;;;;;;5033704;28;20207;-50
2023/01/07 08:15:07;;;;;;;28.53;20.53;;;9.90;99.90;;;;;;5028940;28;20203;-52
2023/01/07 08:17:35;;;;;;;29.90;20.03;;;9.90;99.90;;;;;;5031890;28;21333;-46
2023/01/07 08:20:02;;;;;;;27.80;20.17;;;9.90;99.90;;;;;;5021200;28;20271;-54
2023/01/07 08:22:30;;;;;;;28.07;19.87;;;9.90;99.90;;;;;;5029200;28;20195;-50
2023/01/07 08:24:57;;;;;;;30.53;20.40;;;10.00;99.90;;;;;;5032602;28;20204;-48
2023/01/07 08:27:26;;;;;;;31.53;20.83;;;9.90;99.90;;;;;;5024031;28;20211;-49
2023/01/07 08:29:53;;;;;;;29.53;21.10;;;10.00;99.90;;;;;;5032870;28;20227;-46
2023/01/07 08:32:22;;;;;;;28.23;20.93;;;10.00;99.90;;;;;;5015605;28;20212;-46
2023/01/07 08:34:48;;;;;;;27.83;20.40;;;10.00;99.90;;;;;;5029367;28;20214;-53
2023/01/07 08:37:16;;;;;;;30.33;21.03;;;10.00;99.90;;;;;;5026888;28;20797;-54
2023/01/07 08:39:44;;;;;;;28.53;21.23;;;10.10;99.90;;;;;;5024395;28;20206;-46
2023/01/07 08:42:11;;;;;;;26.90;20.27;;;10.10;99.90;;;;;;5037441;28;20222;-50
2023/01/07 08:45:00;;;;;;;30.50;20.83;;;10.10;99.90;;;;;;5032713;28;20214;-52
2023/01/07 08:47:27;;;;;;;26.50;20.17;;;10.10;99.90;;;;;;5017069;28;20294;-46
2023/01/07 08:49:53;;;;;;;25.77;20.13;;;10.10;99.90;;;;;;5050764;28;20274;-45
2023/01/07 08:52:21;;;;;;;26.43;19.77;;;10.20;99.90;;;;;;5018374;28;20820;-49
2023/01/07 08:54:50;;;;;;;26.17;20.20;;;10.20;99.90;;;;;;5031124;28;20211;-45
2023/01/07 08:57:18;;;;;;;25.47;18.90;;;10.10;99.90;;;;;;5039754;28;20694;-54
2023/01/07 08:59:45;;;;;;;25.50;20.23;;;10.20;99.90;;;;;;5043335;28;20202;-45
2023/01/07 09:02:15;;;;;;;25.57;19.73;;;10.20;99.90;;;;;;5016264;28;20670;-49
2023/01/07 09:04:45;;;;;;;25.43;19.20;;;10.30;99.90;;;;;;5023954;28;20188;-45
2023/01/07 09:07:12;;;;;;;24.33;18.70;;;10.30;99.90;;;;;;5017096;28;20220;-50
2023/01/07 09:09:41;;;;;;;24.30;19.07;;;10.30;99.90;;;;;;5021592;28;20203;-47
2023/01/07 09:12:32;;;;;;;21.30;17.00;;;10.30;99.90;;;;;;5021261;28;20207;-45
2023/01/07 09:14:59;;;;;;;23.73;18.17;;;10.30;99.90;;;;;;5034872;28;20202;-52
2023/01/07 09:17:26;;;;;;;21.97;17.70;;;10.30;99.90;;;;;;5015695;28;20219;-46
2023/01/07 09:19:53;;;;;;;22.33;18.03;;;10.30;99.90;;;;;;5023207;28;20288;-50
2023/01/07 09:22:20;;;;;;;22.37;17.20;;;10.40;99.90;;;;;;5019522;28;20872;-49
2023/01/07 09:24:47;;;;;;;22.20;17.40;;;10.40;99.90;;;;;;5024496;28;20203;-46
2023/01/07 09:27:15;;;;;;;20.10;16.77;;;10.40;99.90;;;;;;5039578;28;20223;-50
2023/01/07 09:29:43;;;;;;;22.17;16.40;;;10.40;99.90;;;;;;5042172;28;20283;-49
2023/01/07 09:32:11;;;;;;;19.87;15.80;;;10.40;99.90;;;;;;5012030;28;20196;-51
2023/01/07 09:34:37;;;;;;;22.90;17.27;;;10.40;99.90;;;;;;5019472;28;20314;-48
2023/01/07 09:37:04;;;;;;;17.27;14.10;;;10.40;99.90;;;;;;5021839;28;20243;-55
2023/01/07 09:39:31;;;;;;;15.80;14.10;;;10.40;99.90;;;;;;5036590;28;20301;-50
2023/01/07 09:42:02;;;;;;;16.17;13.90;;;10.40;99.90;;;;;;5027617;28;20190;-52
2023/01/07 09:44:46;;;;;;;17.97;12.83;;;10.50;99.90;;;;;;5022726;28;20195;-48
2023/01/07 09:47:17;;;;;;;17.23;13.10;;;10.50;99.90;;;;;;5008897;28;20249;-53
2023/01/07 09:49:46;;;;;;;15.13;12.47;;;10.50;99.90;;;;;;5023182;28;20200;-51
2023/01/07 09:52:19;;;;;;;13.73;11.70;;;10.60;99.90;;;;;;5016128;28;20255;-54
2023/01/07 09:54:50;;;;;;;12.47;10.57;;;10.60;99.90;;;;;;5025291;28;20199;-47
2023/01/07 09:57:19;;;;;;;11.43;10.03;;;10.60;99.90;;;;;;5020511;28;20207;-47
2023/01/07 09:59:47;;;;;;;11.80;9.67;;;10.60;99.90;;;;;;5023517;28;20199;-47
2023/01/07 10:02:27;;;;;;;9.77;8.60;;;10.60;99.90;;;;;;5020030;28;20196;-51
2023/01/07 10:04:58;;;;;;;8.17;7.37;;;10.70;99.90;;;;;;5011583;28;20215;-46
2023/01/07 10:07:32;;;;;;;7.03;6.33;;;10.60;99.90;;;;;;5020898;28;20231;-46
2023/01/07 10:10:09;;;;;;;8.00;6.07;;;10.60;99.90;;;;;;5028370;28;20202;-52
2023/01/07 10:12:43;;;;;;;6.60;6.00;;;10.70;99.90;;;;;;5025097;28;20204;-46
2023/01/07 10:15:37;;;;;;;5.53;4.83;;;10.70;99.90;;;;;;5020619;28;20204;-53
2023/01/07 10:18:21;;;;;;;5.10;4.40;;;10.70;99.90;;;;;;5014287;28;20232;-48
2023/01/07 10:20:56;;;;;;;4.63;4.23;;;10.70;99.90;;;;;;5022945;28;20684;-47
2023/01/07 10:23:27;;;;;;;6.23;3.80;;;10.70;99.90;;;;;;5015504;28;20199;-46
2023/01/07 10:25:56;;;;;;;4.00;3.70;;;10.80;99.90;;;;;;5042505;28;20278;-46
2023/01/07 10:28:32;;;;;;;3.90;3.60;;;10.80;99.90;;;;;;5034094;28;20342;-47
2023/01/07 10:31:02;;;;;;;3.33;3.03;;;10.80;99.90;;;;;;5042858;28;20219;-48
2023/01/07 10:33:32;;;;;;;3.67;3.10;;;10.90;99.90;;;;;;5024610;28;21332;-54
2023/01/07 10:36:08;;;;;;;2.90;2.70;;;10.90;99.90;;;;;;5020720;28;20210;-49
2023/01/07 10:38:39;;;;;;;2.70;2.50;;;10.90;99.90;;;;;;5027645;28;20242;-51
2023/01/07 10:41:12;;;;;;;3.30;2.63;;;10.90;99.90;;;;;;5031009;28;20207;-50
2023/01/07 10:43:51;;;;;;;3.47;2.70;;;11.00;99.90;;;;;;5034038;28;20203;-51
2023/01/07 10:46:42;;;;;;;2.70;2.50;;;11.00;99.90;;;;;;5026600;28;20200;-50
2023/01/07 10:49:22;;;;;;;2.40;2.30;;;11.10;99.90;;;;;;5011919;28;20208;-47
2023/01/07 10:52:01;;;;;;;2.10;2.00;;;11.00;99.90;;;;;;5021315;28;20299;-48
2023/01/07 10:55:15;;;;;;;2.20;2.10;;;11.10;99.90;;;;;;5025939;28;20215;-48
2023/01/07 10:57:42;;;;;;;2.50;2.30;;;11.10;99.90;;;;;;5026837;28;20238;-54
2023/01/07 11:00:14;;;;;;;2.40;2.20;;;11.10;99.90;;;;;;5039307;28;20204;-46
2023/01/07 11:02:46;;;;;;;2.30;2.10;;;11.10;99.90;;;;;;5023789;28;20210;-51
2023/01/07 11:05:13;;;;;;;2.27;2.00;;;11.10;99.90;;;;;;5012303;28;20647;-48
2023/01/07 11:07:43;;;;;;;1.70;1.60;;;11.10;99.90;;;;;;5025582;28;20242;-52
2023/01/07 11:10:15;;;;;;;1.93;1.57;;;11.10;99.90;;;;;;5026989;28;20207;-45
2023/01/07 11:12:47;;;;;;;2.47;1.80;;;11.10;99.90;;;;;;5028773;28;20196;-49
2023/01/07 11:15:20;;;;;;;2.20;1.43;;;11.20;99.90;;;;;;5028283;28;20211;-46
2023/01/07 11:17:52;;;;;;;1.73;1.63;;;11.20;99.90;;;;;;5020887;28;20282;-48
2023/01/07 11:20:47;;;;;;;3.10;1.80;;;11.20;99.90;;;;;;5033285;28;20207;-49
2023/01/07 11:23:34;;;;;;;2.47;1.53;;;11.20;99.90;;;;;;5029602;28;20196;-50
2023/01/07 11:26:12;;;;;;;1.37;1.27;;;11.20;99.90;;;;;;5021576;28;20349;-48
2023/01/07 11:28:43;;;;;;;1.60;1.50;;;11.10;99.90;;;;;;5023580;28;20196;-54
2023/01/07 11:31:10;;;;;;;1.47;1.37;;;11.20;99.90;;;;;;5024130;28;20300;-45
2023/01/07 11:33:42;;;;;;;2.00;1.53;;;11.20;99.90;;;;;;5023684;28;20283;-52
2023/01/07 11:36:09;;;;;;;2.90;1.23;;;11.20;99.90;;;;;;5021239;28;20207;-48
2023/01/07 11:38:37;;;;;;;3.30;1.33;;;11.30;99.90;;;;;;5027164;28;20227;-51
2023/01/07 11:41:06;;;;;;;1.30;1.20;;;11.20;99.90;;;;;;5027499;28;20206;-45
2023/01/07 11:43:34;;;;;;;0.97;0.97;;;11.20;99.90;;;;;;5024712;28;20207;-49
2023/01/07 11:46:04;;;;;;;2.00;1.20;;;11.20;99.90;;;;;;5020606;28;21613;-49
2023/01/07 11:48:33;;;;;;;3.20;1.10;;;11.20;99.90;;;;;;5025183;28;20258;-50
2023/01/07 11:51:04;;;;;;;2.50;1.10;;;11.20;99.90;;;;;;5010214;28;20242;-45
2023/01/07 11:53:35;;;;;;;1.00;1.00;;;11.30;99.90;;;;;;5027868;28;20219;-52
2023/01/07 11:56:05;;;;;;;1.47;1.33;;;11.30;99.90;;;;;;5023070;28;20211;-48
2023/01/07 11:58:34;;;;;;;3.50;1.37;;;11.30;99.90;;;;;;5019596;28;20199;-51
2023/01/07 12:01:19;;;;;;;2.63;1.20;;;11.30;99.90;;;;;;5021048;28;20200;-48
2023/01/07 12:04:10;;;;;;;2.83;1.30;;;11.20;99.90;;;;;;5032030;28;20208;-44
2023/01/07 12:06:41;;;;;;;1.47;1.17;;;11.20;99.90;;;;;;5021661;28;20226;-45
2023/01/07 12:09:25;;;;;;;1.97;1.50;;;11.20;99.90;;;;;;5023832;28;20204;-48
2023/01/07 12:11:54;;;;;;;4.23;1.20;;;11.20;99.90;;;;;;5034254;28;20215;-44
2023/01/07 12:14:26;;;;;;;1.97;1.00;;;11.20;99.90;;;;;;5022028;28;20210;-50
2023/01/07 12:16:56;;;;;;;0.90;0.90;;;11.20;99.90;;;;;;5023846;28;20568;-49
2023/01/07 12:19:33;;;;;;;2.17;1.10;;;11.20;99.90;;;;;;5026878;28;20202;-48
2023/01/07 12:22:15;;;;;;;3.03;0.90;;;11.30;99.90;;;;;;5014078;28;20207;-47
2023/01/07 12:24:58;;;;;;;1.27;1.17;;;11.30;99.90;;;;;;5024735;28;20219;-51
2023/01/07 12:27:34;;;;;;;1.63;1.20;;;11.30;99.90;;;;;;5018063;28;20219;-46
2023/01/07 12:30:22;;;;;;;2.30;0.97;;;11.30;99.90;;;;;;5044253;28;20693;-48
2023/01/07 12:32:56;;;;;;;2.20;0.90;;;11.30;99.90;;;;;;5025762;28;20223;-47
2023/01/07 12:35:25;;;;;;;2.50;1.20;;;11.40;99.90;;;;;;5021002;28;20203;-48
2023/01/07 12:37:57;;;;;;;2.23;0.80;;;11.40;99.90;;;;;;5010192;28;20220;-47
2023/01/07 12:40:32;;;;;;;1.20;0.80;;;11.40;99.90;;;;;;5026528;28;20195;-47
2023/01/07 12:43:04;;;;;;;1.03;0.93;;;11.40;99.90;;;;;;5030334;28;20212;-47
2023/01/07 12:45:35;;;;;;;0.83;0.80;;;11.40;99.90;;;;;;5017464;28;20305;-51
2023/01/07 12:48:06;;;;;;;0.87;0.60;;;11.40;99.90;;;;;;5025085;28;20223;-50
2023/01/07 12:50:37;;;;;;;1.70;0.90;;;11.40;99.90;;;;;;5022386;28;20343;-48
2023/01/07 12:53:14;;;;;;;1.47;0.70;;;11.40;99.90;;;;;;5022237;28;20289;-51
2023/01/07 12:55:44;;;;;;;1.63;1.03;;;11.40;99.90;;;;;;5020091;28;21056;-45
2023/01/07 12:58:16;;;;;;;1.37;0.90;;;11.40;99.90;;;;;;5021206;28;20282;-49
2023/01/07 13:00:48;;;;;;;0.70;0.70;;;11.40;99.90;;;;;;5025215;28;20200;-46
2023/01/07 13:03:28;;;;;;;0.90;0.90;;;11.40;99.90;;;;;;5021731;28;20207;-49